Flight Track Log - Related Links

Times and Time Zones

All times are in EST time to prevent confusion due to time zone crossing. See the RPA3228 flight status page for this flight to view local times or setup timezone preferences in your user account.


Time Position Orientation Groundspeed Altitude Reporting Facility
EST Latitude Longitude Course Direction KTS MPH feet Rate Location/Type
Fri 07:14:48 AM 36.1333 -86.6833 50° Northeast 146 168 1,300  Level Nashville TRACON
Fri 07:15:18 AM 36.1500 -86.7167 302° West 160 184 2,500 2,200 Climbing Nashville TRACON
Fri 07:16:18 AM 36.1667 -86.7667 292° West 213 245 4,600 2,200 Climbing Nashville TRACON
Fri 07:17:00 AM 36.2387 -86.3351 80° East  Level Estimated
Fri 07:17:18 AM 36.1833 -86.7000 73° East 279 321 6,900  Level Nashville TRACON
Fri 07:18:00 AM 36.2766 -86.2205 64° Northeast  Level Estimated
Fri 07:18:47 AM 36.1897 -86.5508 87° East 319 367 10,500  Level Memphis Center
Fri 07:19:00 AM 36.3143 -86.1058 68° East  Level Estimated
Fri 07:19:47 AM 36.1925 -86.4350 88° East 327 376 12,100  Level Memphis Center
Fri 07:20:00 AM 36.3520 -85.9910 50° Northeast  Level Estimated
Fri 07:20:47 AM 36.1947 -86.3089 89° East 356 410 14,900  Level Memphis Center
Fri 07:21:47 AM 36.1969 -86.1906 89° East 367 422 17,000 1,900 Climbing Memphis Center
Fri 07:22:47 AM 36.2092 -86.0561 84° East 388 447 18,700 1,850 Climbing Memphis Center
Fri 07:23:47 AM 36.2611 -85.9350 62° Northeast 381 438 20,700 1,982 Climbing Memphis Center
Fri 07:24:39 AM 36.3053 -85.8333 62° Northeast 411 473 22,400 1,912 Climbing Indianapolis Center
Fri 07:25:40 AM 36.3672 -85.7022 60° Northeast 421 484 24,300 1,756 Climbing Indianapolis Center
Fri 07:26:42 AM 36.4300 -85.5703 59° Northeast 436 502 26,000 1,317 Climbing Indianapolis Center
Fri 07:27:43 AM 36.4931 -85.4361 60° Northeast 445 512 27,000 541 Climbing Indianapolis Center
Fri 07:28:44 AM 36.5581 -85.2992 59° Northeast 455 524 27,100 689 Climbing Indianapolis Center
Fri 07:29:45 AM 36.6197 -85.1553 62° Northeast 475 547 28,400 1,475 Climbing Indianapolis Center
Fri 07:30:46 AM 36.6792 -84.9700 68° East 479 551 30,100 1,279 Climbing Indianapolis Center
Fri 07:31:47 AM 36.7272 -84.8125 69° East 483 556 31,000 439 Climbing Indianapolis Center
Fri 07:32:49 AM 36.7731 -84.6586 70° East 473 544 31,000  Level Indianapolis Center
Fri 07:33:50 AM 36.8178 -84.5097 69° East 459 528 31,000  Level Indianapolis Center
Fri 07:34:51 AM 36.8625 -84.3628 69° East 460 529 31,000  Level Indianapolis Center
Fri 07:35:52 AM 36.9075 -84.2142 69° East 457 526 31,000  Level Indianapolis Center
Fri 07:36:54 AM 36.9525 -84.0650 69° East 457 526 31,000  Level Indianapolis Center
Fri 07:37:55 AM 36.9961 -83.9139 70° East 459 528 31,000  Level Indianapolis Center
Fri 07:38:56 AM 37.0436 -83.7625 69° East 466 536 31,000  Level Indianapolis Center
Fri 07:39:58 AM 37.0881 -83.6103 70° East 465 535 31,000  Level Indianapolis Center
Fri 07:40:59 AM 37.1383 -83.4331 70° East 463 533 31,000  Level Indianapolis Center
Fri 07:42:01 AM 37.1831 -83.2797 70° East 465 535 31,000  Level Indianapolis Center
Fri 07:43:02 AM 37.2267 -83.1275 70° East 463 533 31,000  Level Indianapolis Center
Fri 07:44:04 AM 37.2711 -82.9733 70° East 464 534 31,000  Level Indianapolis Center
Fri 07:45:05 AM 37.3147 -82.8194 70° East 464 534 31,000  Level Indianapolis Center
Fri 07:46:07 AM 37.3592 -82.6650 70° East 467 537 31,000  Level Indianapolis Center
Fri 07:47:08 AM 37.4017 -82.5106 71° East 466 536 31,000  Level Indianapolis Center
Fri 07:48:10 AM 37.4456 -82.3547 70° East 470 541 31,000  Level Indianapolis Center
Fri 07:49:12 AM 37.4897 -82.1994 70° East 471 542 31,000  Level Indianapolis Center
Fri 07:50:13 AM 37.5325 -82.0428 71° East 472 543 31,000  Level Indianapolis Center
Fri 07:51:15 AM 37.5833 -81.8589 71° East 474 545 31,000  Level Indianapolis Center
Fri 07:52:17 AM 37.6261 -81.7008 71° East 475 547 31,000  Level Indianapolis Center
Fri 07:53:18 AM 37.6692 -81.5442 71° East 473 544 31,000  Level Indianapolis Center
Fri 07:54:20 AM 37.7125 -81.3803 71° East 478 550 31,000  Level Indianapolis Center
Fri 07:55:21 AM 37.7539 -81.2242 71° East 480 552 31,000  Level Indianapolis Center
Fri 07:56:23 AM 37.7989 -81.0700 70° East 479 551 31,000  Level Indianapolis Center
Fri 07:57:25 AM 37.8539 -80.9183 65° Northeast 477 549 31,000  Level Indianapolis Center
Fri 07:58:27 AM 37.9175 -80.7344 66° East 478 550 31,000  Level Indianapolis Center
Fri 07:59:28 AM 37.9725 -80.5803 66° East 480 552 31,000  Level Indianapolis Center
Fri 08:00:06 AM 37.9997 -80.5039 66° East 474 545 31,000  Level Washington Center
Fri 08:01:04 AM 38.0519 -80.3464 67° East 474 545 31,000  Level Washington Center
Fri 08:02:06 AM 38.1039 -80.1939 67° East 469 540 31,000  Level Washington Center
Fri 08:03:06 AM 38.1536 -80.0333 68° East 469 540 31,000  Level Washington Center
Fri 08:04:05 AM 38.2053 -79.8753 67° East 474 545 31,000  Level Washington Center
Fri 08:05:05 AM 38.2636 -79.6986 67° East 484 557 31,000  Level Washington Center
Fri 08:06:05 AM 38.3150 -79.5347 68° East 489 563 31,000 -353 Level Washington Center
Fri 08:07:04 AM 38.3683 -79.3656 68° East 496 571 30,300 -1,240 Descending Washington Center
Fri 08:08:06 AM 38.4236 -79.1933 68° East 507 583 28,500 -1,650 Descending Washington Center
Fri 08:09:04 AM 38.4725 -79.0208 70° East 512 589 27,000 -1,261 Descending Washington Center
Fri 08:10:05 AM 38.5025 -78.8389 78° East 512 589 26,000 -1,820 Descending Washington Center
Fri 08:11:06 AM 38.5303 -78.6625 79° East 512 589 23,300 -2,132 Descending Washington Center
Fri 08:12:06 AM 38.5575 -78.4908 78° East 505 581 21,700 -1,563 Descending Washington Center
Fri 08:13:05 AM 38.5842 -78.3219 79° East 493 567 20,200 -1,916 Descending Washington Center
Fri 08:14:05 AM 38.6253 -78.1586 72° East 488 562 17,900 -2,083 Descending Washington Center
Fri 08:15:06 AM 38.6700 -78.0219 67° East 447 514 16,000 -1,966 Descending Washington Center
Fri 08:16:04 AM 38.7122 -77.8903 68° East 423 487 14,000 -1,916 Descending Washington Center
Fri 08:17:05 AM 38.7664 -77.7750 59° Northeast 391 450 12,200 -1,623 Descending Washington Center
Fri 08:18:06 AM 38.8286 -77.6808 50° Northeast 357 411 10,700 -1,373 Descending Washington Center
Fri 08:19:03 AM 38.8614 -77.5883 66° East 322 371 9,500 -1,209 Descending Washington Center
Fri 08:20:15 AM 38.9000 -77.4667 68° East 292 336 8,100 -1,370 Descending Potomac TRACON
Fri 08:21:10 AM 38.8833 -77.3667 102° East 312 359 6,600 -1,223 Descending Potomac TRACON
Fri 08:21:58 AM 38.8500 -77.3000 123° Southeast 310 357 6,000 -389 Descending Potomac TRACON
Fri 08:22:58 AM 38.8000 -77.2000 123° Southeast 308 354 5,900 -800 Descending Potomac TRACON
Fri 08:23:58 AM 38.7500 -77.1167 128° Southeast 290 334 4,400 -1,000 Descending Potomac TRACON
Fri 08:24:58 AM 38.6833 -77.0833 159° South 243 280 3,900 -750 Descending Potomac TRACON
Fri 08:25:58 AM 38.7000 -77.0333 67° East 180 207 2,900 -1,000 Descending Potomac TRACON
Fri 08:26:52 AM 38.7500 -77.0333 360° North 158 182 2,000 -947 Descending Potomac TRACON
Fri 08:27:52 AM 38.7833 -77.0333 360° North 155 178 1,100 -800 Descending Potomac TRACON
Fri 08:28:52 AM 38.8167 -77.0333 360° North 129 148 400 -700 Descending Potomac TRACON

Login

Don't have an account? Register now (free) for customized features, flight alerts, and more!